Time;durP1;ratioP1;P1;durP2;ratioP2;P2;SDS_P1;SDS_P2;PMS_P1;PMS_P2;Temp;Humidity;BMP_temperature;BMP_pressure;BME280_temperature;BME280_humidity;BME280_pressure;Samples;Min_cycle;Max_cycle;Signal;HPM_P1;HPM_P2
2021/08/03 00:04:05;;;;;;;0.40;0.20;;;14.80;99.90;;;;;;5033526;28;20188;-65
2021/08/03 00:06:34;;;;;;;0.40;0.20;;;14.90;99.90;;;;;;5033032;28;20188;-65
2021/08/03 00:09:01;;;;;;;0.40;0.20;;;14.90;99.90;;;;;;5033099;28;20208;-66
2021/08/03 00:11:27;;;;;;;0.38;0.20;;;15.10;99.90;;;;;;5033244;28;20507;-65
2021/08/03 00:13:53;;;;;;;0.40;0.20;;;15.00;99.90;;;;;;5033216;28;20186;-65
2021/08/03 00:16:20;;;;;;;0.40;0.20;;;15.10;99.90;;;;;;5033294;28;20182;-65
2021/08/03 00:18:46;;;;;;;0.40;0.10;;;15.10;99.90;;;;;;5032996;28;20178;-66
2021/08/03 00:21:11;;;;;;;0.40;0.20;;;15.20;99.90;;;;;;5032276;28;20599;-65
2021/08/03 00:23:41;;;;;;;0.40;0.20;;;15.20;99.90;;;;;;5033180;28;20173;-65
2021/08/03 00:26:09;;;;;;;0.50;0.30;;;15.10;99.90;;;;;;5032262;28;20428;-65
2021/08/03 00:28:36;;;;;;;0.40;0.20;;;15.10;99.90;;;;;;5032913;28;20243;-65
2021/08/03 00:31:02;;;;;;;0.40;0.20;;;15.20;99.90;;;;;;5033148;28;20193;-67
2021/08/03 00:33:27;;;;;;;0.40;0.20;;;15.20;99.90;;;;;;5033675;28;20183;-67
2021/08/03 00:35:53;;;;;;;0.40;0.20;;;15.30;99.90;;;;;;5032234;28;20200;-67
2021/08/03 00:38:19;;;;;;;0.40;0.17;;;15.40;99.90;;;;;;5032963;28;20173;-67
2021/08/03 00:40:50;;;;;;;0.40;0.20;;;15.50;99.90;;;;;;5034393;28;20227;-67
2021/08/03 00:43:16;;;;;;;0.40;0.20;;;15.40;99.90;;;;;;5036814;28;20165;-67
2021/08/03 00:45:42;;;;;;;0.50;0.40;;;15.30;99.90;;;;;;5036631;28;20188;-67
2021/08/03 00:48:09;;;;;;;0.40;0.10;;;15.20;99.90;;;;;;5036342;28;20170;-67
2021/08/03 00:50:34;;;;;;;0.40;0.20;;;15.20;99.90;;;;;;5036560;28;20232;-68
2021/08/03 00:53:02;;;;;;;0.40;0.10;;;15.30;99.90;;;;;;5036531;28;20197;-68
2021/08/03 00:55:27;;;;;;;0.40;0.20;;;15.20;99.90;;;;;;5036519;28;20275;-68
2021/08/03 00:57:54;;;;;;;0.40;0.20;;;15.20;99.90;;;;;;5036099;28;20205;-68
2021/08/03 01:00:20;;;;;;;0.40;0.20;;;15.40;99.90;;;;;;5036260;28;20186;-68
2021/08/03 01:02:45;;;;;;;0.40;0.17;;;15.20;99.90;;;;;;5036431;28;20571;-68
2021/08/03 01:05:11;;;;;;;0.40;0.20;;;15.20;99.90;;;;;;5036444;28;20607;-68
2021/08/03 01:08:17;;;;;;;0.40;0.20;;;15.40;99.90;;;;;;5036516;28;20185;-68
2021/08/03 01:11:12;;;;;;;0.40;0.20;;;15.50;99.90;;;;;;5014578;28;20198;-68
2021/08/03 01:13:55;;;;;;;0.40;0.20;;;15.50;99.90;;;;;;5036062;28;20247;-67
2021/08/03 01:16:34;;;;;;;0.40;0.20;;;15.60;99.90;;;;;;5036103;28;20235;-68
2021/08/03 01:19:18;;;;;;;0.40;0.20;;;15.60;99.90;;;;;;5036005;28;20200;-68
2021/08/03 01:21:50;;;;;;;0.40;0.17;;;15.60;99.90;;;;;;5036041;28;20189;-68
2021/08/03 01:24:16;;;;;;;0.40;0.20;;;15.60;99.90;;;;;;5036106;28;20677;-68
2021/08/03 01:27:00;;;;;;;0.83;0.83;;;15.70;99.90;;;;;;5035842;28;20178;-68
2021/08/03 01:29:27;;;;;;;0.40;0.20;;;15.70;99.90;;;;;;5035763;28;20308;-68
2021/08/03 01:31:59;;;;;;;0.40;0.20;;;15.70;99.90;;;;;;5035816;28;20178;-68
2021/08/03 01:34:29;;;;;;;0.40;0.20;;;15.80;99.90;;;;;;5035944;28;20507;-67
2021/08/03 01:36:56;;;;;;;0.40;0.20;;;15.70;99.90;;;;;;5035864;28;20202;-66
2021/08/03 01:39:44;;;;;;;0.40;0.20;;;15.60;99.90;;;;;;5035484;28;20212;-66
2021/08/03 01:42:12;;;;;;;0.40;0.20;;;15.80;99.90;;;;;;5035727;28;20188;-66
2021/08/03 01:44:40;;;;;;;0.40;0.17;;;16.00;99.90;;;;;;5035689;28;20182;-66
2021/08/03 01:47:07;;;;;;;0.40;0.20;;;16.10;99.90;;;;;;5035853;28;20432;-66
2021/08/03 01:49:36;;;;;;;0.40;0.20;;;16.10;99.90;;;;;;5035433;28;20789;-66
2021/08/03 01:52:05;;;;;;;0.40;0.20;;;15.90;99.90;;;;;;5034969;28;20178;-66
2021/08/03 01:54:31;;;;;;;0.40;0.20;;;15.90;99.90;;;;;;5034270;28;20213;-66
2021/08/03 01:56:57;;;;;;;0.40;0.20;;;15.80;99.90;;;;;;5035392;28;20424;-66
2021/08/03 01:59:23;;;;;;;0.40;0.20;;;15.80;99.90;;;;;;5035360;28;20243;-66
2021/08/03 02:01:51;;;;;;;0.40;0.10;;;15.80;99.90;;;;;;5035284;28;20552;-66
2021/08/03 02:04:18;;;;;;;0.40;0.20;;;16.00;99.90;;;;;;5035210;28;20486;-66
2021/08/03 02:06:44;;;;;;;0.40;0.10;;;16.00;99.90;;;;;;5035079;28;20208;-66
2021/08/03 02:09:10;;;;;;;0.40;0.20;;;15.90;99.90;;;;;;5034835;28;20212;-66
2021/08/03 02:11:37;;;;;;;0.40;0.20;;;15.70;99.90;;;;;;5035074;28;20416;-66
2021/08/03 02:14:03;;;;;;;0.40;0.20;;;15.60;99.90;;;;;;5035569;28;20416;-66
2021/08/03 02:16:31;;;;;;;0.40;0.20;;;15.50;99.90;;;;;;5034948;28;20420;-67
2021/08/03 02:18:57;;;;;;;0.40;0.20;;;15.60;99.90;;;;;;5034728;28;20276;-67
2021/08/03 02:21:23;;;;;;;0.40;0.20;;;15.70;99.90;;;;;;5034941;28;20558;-67
2021/08/03 02:23:50;;;;;;;0.40;0.20;;;15.60;99.90;;;;;;5035432;28;20197;-67
2021/08/03 02:26:15;;;;;;;1.05;0.95;;;15.40;99.90;;;;;;5034932;28;20261;-66
2021/08/03 02:28:42;;;;;;;0.40;0.20;;;15.30;99.90;;;;;;5034430;28;20363;-66
2021/08/03 02:31:13;;;;;;;0.40;0.20;;;15.30;99.90;;;;;;5034849;28;20424;-66
2021/08/03 02:33:48;;;;;;;0.40;0.20;;;15.20;99.90;;;;;;5034599;28;20178;-66
2021/08/03 02:36:20;;;;;;;0.40;0.20;;;15.30;99.90;;;;;;5034568;28;20204;-66
2021/08/03 02:38:49;;;;;;;0.40;0.20;;;15.50;99.90;;;;;;5034259;28;20182;-66
2021/08/03 02:41:15;;;;;;;0.40;0.20;;;15.30;99.90;;;;;;5034489;28;20192;-66
2021/08/03 02:43:43;;;;;;;0.40;0.20;;;15.50;99.90;;;;;;5034807;28;20181;-66
2021/08/03 02:46:11;;;;;;;0.40;0.20;;;15.50;99.90;;;;;;5033620;28;20459;-66
2021/08/03 02:48:38;;;;;;;0.40;0.20;;;15.50;99.90;;;;;;5034495;28;20464;-66
2021/08/03 02:51:05;;;;;;;0.40;0.20;;;15.50;99.90;;;;;;5034557;28;20373;-66
2021/08/03 02:53:37;;;;;;;0.40;0.20;;;15.40;99.90;;;;;;5034869;28;20189;-66
2021/08/03 02:56:08;;;;;;;0.40;0.20;;;15.50;99.90;;;;;;5037278;28;20196;-66
2021/08/03 02:58:40;;;;;;;0.40;0.20;;;15.50;99.90;;;;;;5037000;28;20205;-66
2021/08/03 03:01:08;;;;;;;0.40;0.20;;;15.50;99.90;;;;;;5036274;28;20182;-66
2021/08/03 03:03:38;;;;;;;0.40;0.17;;;15.60;99.90;;;;;;5036035;28;20193;-66
2021/08/03 03:06:06;;;;;;;0.40;0.20;;;15.40;99.90;;;;;;5035250;28;20182;-66
2021/08/03 03:08:34;;;;;;;0.40;0.20;;;15.30;99.90;;;;;;5035304;28;20496;-66
2021/08/03 03:11:07;;;;;;;0.40;0.20;;;15.20;99.90;;;;;;5035508;28;20622;-66
2021/08/03 03:13:40;;;;;;;0.40;0.20;;;15.10;99.90;;;;;;5035999;28;20165;-66
2021/08/03 03:16:07;;;;;;;0.40;0.20;;;14.90;99.90;;;;;;5035056;28;20358;-66
2021/08/03 03:18:34;;;;;;;0.40;0.20;;;14.90;99.90;;;;;;5035461;28;20266;-66
2021/08/03 03:21:02;;;;;;;0.40;0.20;;;14.90;99.90;;;;;;5034842;28;20243;-66
2021/08/03 03:23:32;;;;;;;0.40;0.20;;;14.80;99.90;;;;;;5032835;28;20197;-66
2021/08/03 03:25:58;;;;;;;0.40;0.20;;;14.80;99.90;;;;;;5033764;28;20247;-66
2021/08/03 03:28:30;;;;;;;0.40;0.10;;;14.60;99.90;;;;;;5033915;28;20265;-66
2021/08/03 03:30:57;;;;;;;0.38;0.17;;;14.50;99.90;;;;;;5033777;28;20516;-66
2021/08/03 03:33:24;;;;;;;0.40;0.20;;;14.40;99.90;;;;;;5032822;28;20292;-67
2021/08/03 03:35:52;;;;;;;0.40;0.20;;;14.50;99.90;;;;;;5033911;28;20208;-67
2021/08/03 03:38:21;;;;;;;0.40;0.20;;;14.50;99.90;;;;;;5033349;28;20628;-67
2021/08/03 03:40:48;;;;;;;0.40;0.20;;;14.50;99.90;;;;;;5033709;28;20680;-67
2021/08/03 03:43:17;;;;;;;0.40;0.20;;;14.30;99.90;;;;;;5033638;28;20177;-66
2021/08/03 03:45:46;;;;;;;0.40;0.20;;;14.30;99.90;;;;;;5033477;28;20185;-66
2021/08/03 03:48:19;;;;;;;0.55;0.55;;;14.10;99.90;;;;;;5033272;28;20178;-66
2021/08/03 03:51:00;;;;;;;0.40;0.20;;;14.10;99.90;;;;;;5033761;28;20186;-66
2021/08/03 03:53:40;;;;;;;0.50;0.50;;;14.10;99.90;;;;;;5033470;28;20183;-66
2021/08/03 03:56:06;;;;;;;0.55;0.47;;;14.10;99.90;;;;;;5033005;28;20448;-66
2021/08/03 03:58:39;;;;;;;0.30;0.20;;;14.10;99.90;;;;;;5033185;28;20201;-66
2021/08/03 04:01:06;;;;;;;0.60;0.60;;;14.10;99.90;;;;;;5033759;28;20236;-66
2021/08/03 04:03:35;;;;;;;0.40;0.20;;;14.20;99.90;;;;;;5033525;28;20173;-66
2021/08/03 04:06:01;;;;;;;0.40;0.20;;;14.40;99.90;;;;;;5033473;28;20246;-66
2021/08/03 04:08:29;;;;;;;0.40;0.30;;;14.40;99.90;;;;;;5031951;28;20174;-66
2021/08/03 04:11:00;;;;;;;0.32;0.20;;;14.50;99.90;;;;;;5034138;28;20174;-68
2021/08/03 04:13:26;;;;;;;0.30;0.20;;;14.60;99.90;;;;;;5035468;28;20173;-69
2021/08/03 04:15:51;;;;;;;0.40;0.20;;;14.50;99.90;;;;;;5036325;28;20178;-69
2021/08/03 04:18:17;;;;;;;0.40;0.23;;;14.60;99.90;;;;;;5038009;28;20181;-68
2021/08/03 04:20:42;;;;;;;0.40;0.20;;;14.70;99.90;;;;;;5037088;28;20177;-65
2021/08/03 04:23:08;;;;;;;1.27;0.73;;;14.70;99.90;;;;;;5037059;28;20178;-65
2021/08/03 04:25:34;;;;;;;0.40;0.20;;;14.80;99.90;;;;;;5038766;28;20181;-68
2021/08/03 04:27:59;;;;;;;0.80;0.67;;;14.80;99.90;;;;;;5038807;28;20174;-68
2021/08/03 04:30:25;;;;;;;0.60;0.40;;;14.70;99.90;;;;;;5037759;28;20209;-66
2021/08/03 04:32:50;;;;;;;0.40;0.20;;;14.70;99.90;;;;;;5036847;28;20217;-66
2021/08/03 04:35:16;;;;;;;0.50;0.50;;;14.50;99.90;;;;;;5036808;28;20232;-66
2021/08/03 04:37:44;;;;;;;0.87;0.40;;;14.50;99.90;;;;;;5036608;28;20223;-64
2021/08/03 04:40:11;;;;;;;1.02;0.80;;;14.40;99.90;;;;;;5036522;28;20435;-65
2021/08/03 04:42:37;;;;;;;0.40;0.25;;;14.30;99.90;;;;;;5036799;28;20174;-65
2021/08/03 04:45:05;;;;;;;0.30;0.20;;;14.50;99.90;;;;;;5036615;28;20559;-65
2021/08/03 04:47:31;;;;;;;0.82;0.82;;;14.50;99.90;;;;;;5036556;28;20185;-65
2021/08/03 04:49:56;;;;;;;0.40;0.30;;;14.50;99.90;;;;;;5036286;28;20270;-65
2021/08/03 04:52:22;;;;;;;0.40;0.20;;;14.50;99.90;;;;;;5036492;28;20669;-65
2021/08/03 04:54:47;;;;;;;1.70;1.60;;;14.30;99.90;;;;;;5036312;28;20626;-64
2021/08/03 04:57:13;;;;;;;0.40;0.20;;;14.30;99.90;;;;;;5036451;28;20598;-64
2021/08/03 04:59:39;;;;;;;0.40;0.20;;;14.10;99.90;;;;;;5036301;28;20610;-64
2021/08/03 05:02:04;;;;;;;0.30;0.20;;;14.20;99.90;;;;;;5035803;28;20189;-64
2021/08/03 05:04:33;;;;;;;0.30;0.20;;;14.20;99.90;;;;;;5036313;28;20192;-66
2021/08/03 05:07:00;;;;;;;0.40;0.20;;;14.20;99.90;;;;;;5035146;28;20189;-66
2021/08/03 05:09:26;;;;;;;0.40;0.20;;;14.30;99.90;;;;;;5035654;28;20205;-66
2021/08/03 05:11:51;;;;;;;0.40;0.20;;;14.30;99.90;;;;;;5034792;28;20173;-68
2021/08/03 05:14:17;;;;;;;0.60;0.60;;;14.10;99.90;;;;;;5034607;28;20181;-67
2021/08/03 05:16:42;;;;;;;0.40;0.20;;;14.30;99.90;;;;;;5035939;28;20182;-68
2021/08/03 05:19:08;;;;;;;0.30;0.20;;;14.70;99.90;;;;;;5035964;28;20267;-67
2021/08/03 05:21:34;;;;;;;0.30;0.20;;;15.10;99.90;;;;;;5035306;28;20217;-67
2021/08/03 05:23:59;;;;;;;0.40;0.20;;;15.40;99.90;;;;;;5036529;28;20212;-66
2021/08/03 05:26:25;;;;;;;0.40;0.20;;;15.70;99.90;;;;;;5034927;28;20618;-64
2021/08/03 05:28:50;;;;;;;0.40;0.30;;;16.00;99.90;;;;;;5036214;28;20716;-64
2021/08/03 05:31:16;;;;;;;0.40;0.10;;;16.00;99.90;;;;;;5036091;28;20234;-65
2021/08/03 05:33:41;;;;;;;0.40;0.20;;;16.40;99.90;;;;;;5035742;28;20180;-65
2021/08/03 05:36:07;;;;;;;0.40;0.20;;;16.50;99.90;;;;;;5035669;28;20169;-65
2021/08/03 05:38:33;;;;;;;0.40;0.20;;;16.70;99.90;;;;;;5035486;28;20315;-65
2021/08/03 05:40:59;;;;;;;0.50;0.50;;;16.70;99.90;;;;;;5036361;28;20246;-68
2021/08/03 05:43:24;;;;;;;0.60;0.50;;;16.80;99.90;;;;;;5036094;28;20613;-69
2021/08/03 05:45:50;;;;;;;0.40;0.20;;;16.90;99.90;;;;;;5036231;28;20292;-69
2021/08/03 05:48:16;;;;;;;0.40;0.20;;;16.90;99.90;;;;;;5038747;28;20523;-69
2021/08/03 05:50:41;;;;;;;0.40;0.20;;;16.90;99.90;;;;;;5057721;28;20231;-69
2021/08/03 05:53:07;;;;;;;1.13;0.50;;;16.80;99.90;;;;;;5058194;28;20245;-69
2021/08/03 05:55:32;;;;;;;0.40;0.20;;;16.70;99.90;;;;;;5055230;28;20193;-68
2021/08/03 05:57:58;;;;;;;0.40;0.20;;;16.90;99.90;;;;;;5036396;28;20240;-68
2021/08/03 06:00:23;;;;;;;0.40;0.20;;;17.10;99.90;;;;;;5033820;28;20263;-66
2021/08/03 06:02:49;;;;;;;0.40;0.20;;;17.10;99.90;;;;;;5034240;28;20190;-66
2021/08/03 06:05:14;;;;;;;0.40;0.20;;;17.20;99.90;;;;;;5034485;28;20268;-62
2021/08/03 06:07:43;;;;;;;0.40;0.13;;;17.50;99.90;;;;;;5034491;28;20189;-63
2021/08/03 06:10:14;;;;;;;0.40;0.20;;;17.60;99.90;;;;;;5034741;28;20240;-63
2021/08/03 06:12:42;;;;;;;0.40;0.20;;;17.60;99.90;;;;;;5035198;28;20427;-62
2021/08/03 06:15:08;;;;;;;0.50;0.40;;;17.40;99.90;;;;;;5034919;28;20420;-61
2021/08/03 06:17:41;;;;;;;0.40;0.20;;;17.70;99.90;;;;;;5034657;28;20428;-62
2021/08/03 06:20:08;;;;;;;0.60;0.40;;;17.70;99.90;;;;;;5034588;28;20439;-62
2021/08/03 06:22:37;;;;;;;0.40;0.20;;;17.80;99.90;;;;;;5034611;28;20768;-65
2021/08/03 06:25:04;;;;;;;0.40;0.20;;;18.10;99.90;;;;;;5034986;28;20920;-64
2021/08/03 06:27:31;;;;;;;0.40;0.20;;;18.10;12.40;;;;;;5034604;28;20420;-63
2021/08/03 06:30:00;;;;;;;0.40;0.17;;;18.70;56.90;;;;;;5034529;28;20558;-63
2021/08/03 06:32:26;;;;;;;0.50;0.20;;;19.10;1.00;;;;;;5034711;28;20420;-63
2021/08/03 06:34:52;;;;;;;1.70;0.67;;;19.50;1.00;;;;;;5034358;28;20727;-64
2021/08/03 06:37:17;;;;;;;0.40;0.20;;;19.20;99.90;;;;;;5034169;28;20424;-63
2021/08/03 06:39:43;;;;;;;0.40;0.20;;;19.30;1.00;;;;;;5033905;28;20261;-64
2021/08/03 06:42:20;;;;;;;0.40;0.20;;;19.70;1.00;;;;;;5034395;28;20181;-64
2021/08/03 06:45:14;;;;;;;0.60;0.20;;;20.60;99.90;;;;;;5034517;28;20169;-64
2021/08/03 06:47:48;;;;;;;0.50;0.40;;;21.90;99.90;;;;;;5031928;28;20448;-63
2021/08/03 06:50:18;;;;;;;0.97;0.30;;;22.90;99.90;;;;;;5034079;28;20459;-63
2021/08/03 06:52:45;;;;;;;0.40;0.20;;;22.80;99.90;;;;;;5034194;28;20482;-62
2021/08/03 06:55:13;;;;;;;0.40;0.20;;;22.10;1.00;;;;;;5036790;28;20834;-62
2021/08/03 06:57:49;;;;;;;0.40;0.20;;;21.10;1.00;;;;;;5054034;28;20427;-61
2021/08/03 07:00:16;;;;;;;0.40;0.20;;;20.60;1.00;;;;;;5054098;28;20431;-62
2021/08/03 07:02:43;;;;;;;0.40;0.20;;;20.30;99.90;;;;;;5053870;28;20427;-62
2021/08/03 07:05:17;;;;;;;0.40;0.20;;;20.20;99.90;;;;;;5053888;28;20423;-63
2021/08/03 07:07:44;;;;;;;0.40;0.20;;;20.80;1.00;;;;;;5052458;28;20883;-63
2021/08/03 07:10:10;;;;;;;0.40;0.10;;;21.20;1.00;;;;;;5033409;28;20459;-63
2021/08/03 07:12:36;;;;;;;0.40;0.20;;;21.00;1.00;;;;;;5032621;28;20517;-62
2021/08/03 07:15:03;;;;;;;0.40;0.20;;;20.90;99.90;;;;;;5033968;28;20470;-65
2021/08/03 07:17:30;;;;;;;0.40;0.20;;;20.70;1.00;;;;;;5033839;28;21015;-63
2021/08/03 07:20:01;;;;;;;0.40;0.17;;;20.90;1.00;;;;;;5033830;28;20435;-63
2021/08/03 07:22:27;;;;;;;0.40;0.20;;;20.90;1.00;;;;;;5033709;28;20854;-62
2021/08/03 07:24:53;;;;;;;0.40;0.20;;;20.80;1.00;;;;;;5033752;28;20435;-63
2021/08/03 07:27:19;;;;;;;0.40;0.20;;;20.90;99.90;;;;;;5033788;28;20517;-63
2021/08/03 07:29:44;;;;;;;0.40;0.20;;;21.60;1.00;;;;;;5033611;28;20542;-67
2021/08/03 07:32:11;;;;;;;0.50;0.20;;;21.60;1.00;;;;;;5032788;28;20436;-67
2021/08/03 07:34:38;;;;;;;0.40;0.20;;;21.20;99.90;;;;;;5033697;28;20178;-66
2021/08/03 07:37:04;;;;;;;0.40;0.20;;;21.40;99.90;;;;;;5033577;28;20516;-67
2021/08/03 07:39:30;;;;;;;0.40;0.20;;;22.00;99.90;;;;;;5033512;28;20477;-67
2021/08/03 07:41:58;;;;;;;0.40;0.20;;;22.80;1.00;;;;;;5033451;28;20436;-68
2021/08/03 07:44:24;;;;;;;0.40;0.20;;;23.10;1.00;;;;;;5032475;28;20619;-68
2021/08/03 07:46:49;;;;;;;0.47;0.20;;;23.10;99.90;;;;;;5032672;28;20468;-68
2021/08/03 07:49:16;;;;;;;0.40;0.20;;;23.20;99.90;;;;;;5033117;28;20209;-68
2021/08/03 07:51:42;;;;;;;0.40;0.20;;;23.10;99.90;;;;;;5036826;28;20473;-69
2021/08/03 07:54:08;;;;;;;0.40;0.20;;;22.40;99.90;;;;;;5037856;28;20427;-68
2021/08/03 07:56:34;;;;;;;0.40;0.20;;;22.70;99.90;;;;;;5037428;28;20181;-67
2021/08/03 07:59:01;;;;;;;0.40;0.20;;;22.20;1.00;;;;;;5037086;28;20384;-68
2021/08/03 08:01:26;;;;;;;0.40;0.20;;;22.50;99.90;;;;;;5037338;28;20435;-68
2021/08/03 08:03:52;;;;;;;0.40;0.30;;;22.50;99.90;;;;;;5037471;28;20505;-63
2021/08/03 08:06:17;;;;;;;0.40;0.20;;;22.90;99.90;;;;;;5037380;28;20188;-68
2021/08/03 08:08:43;;;;;;;0.40;0.20;;;23.60;99.90;;;;;;5035916;28;20614;-68
2021/08/03 08:11:09;;;;;;;0.40;0.20;;;22.70;1.00;;;;;;5036477;28;20177;-69
2021/08/03 08:13:34;;;;;;;0.40;0.20;;;21.40;1.00;;;;;;5037323;28;20595;-68
2021/08/03 08:16:00;;;;;;;0.40;0.20;;;21.10;99.90;;;;;;5036122;28;20502;-67
2021/08/03 08:18:26;;;;;;;0.40;0.20;;;20.40;99.90;;;;;;5036942;28;20188;-66
2021/08/03 08:20:51;;;;;;;0.40;0.10;;;20.40;99.90;;;;;;5035967;28;20192;-66
2021/08/03 08:23:17;;;;;;;0.40;0.20;;;21.50;99.90;;;;;;5037278;28;20188;-68
2021/08/03 08:25:43;;;;;;;0.40;0.20;;;21.80;1.00;;;;;;5037059;28;20656;-67
2021/08/03 08:28:09;;;;;;;0.40;0.20;;;22.40;99.90;;;;;;5036721;28;20189;-69
2021/08/03 08:30:37;;;;;;;1.17;1.17;;;22.90;99.90;;;;;;5036855;28;20467;-69
2021/08/03 08:33:03;;;;;;;0.40;0.20;;;23.20;99.90;;;;;;5036230;28;20510;-69
2021/08/03 08:35:28;;;;;;;0.40;0.20;;;23.50;99.90;;;;;;5037178;28;20453;-66
2021/08/03 08:37:54;;;;;;;0.40;0.20;;;23.40;9.70;;;;;;5035843;28;20468;-66
2021/08/03 08:40:20;;;;;;;0.40;0.20;;;23.60;1.00;;;;;;5036604;28;20193;-68
2021/08/03 08:42:46;;;;;;;0.50;0.20;;;23.80;1.00;;;;;;5036877;28;20214;-67
2021/08/03 08:45:17;;;;;;;0.40;0.20;;;22.90;1.00;;;;;;5036732;28;20462;-67
2021/08/03 08:47:45;;;;;;;0.40;0.20;;;22.20;1.00;;;;;;5036563;28;20479;-67
2021/08/03 08:50:12;;;;;;;0.60;0.30;;;21.90;24.30;;;;;;5036118;28;20460;-62
2021/08/03 08:52:40;;;;;;;0.47;0.20;;;22.30;25.20;;;;;;5036508;28;20424;-61
2021/08/03 08:55:07;;;;;;;0.40;0.17;;;21.90;99.90;;;;;;5036574;28;20602;-62
2021/08/03 08:57:33;;;;;;;0.40;0.20;;;22.10;99.90;;;;;;5036398;28;20511;-65
2021/08/03 08:59:59;;;;;;;0.40;0.20;;;22.10;1.00;;;;;;5036176;28;20538;-63
2021/08/03 09:02:36;;;;;;;0.40;0.20;;;22.30;23.90;;;;;;5035908;28;20486;-62
2021/08/03 09:05:02;;;;;;;0.40;0.20;;;22.40;99.90;;;;;;5035785;28;20280;-61
2021/08/03 09:07:28;;;;;;;0.40;0.10;;;22.90;1.00;;;;;;5036665;28;20768;-62
2021/08/03 09:09:53;;;;;;;0.40;0.10;;;22.70;99.90;;;;;;5036318;28;20785;-64
2021/08/03 09:12:33;;;;;;;0.40;0.20;;;22.00;1.00;;;;;;5036420;28;20173;-64
2021/08/03 09:14:59;;;;;;;0.50;0.20;;;21.50;1.00;;;;;;5036001;28;20265;-62
2021/08/03 09:17:27;;;;;;;0.40;0.20;;;21.60;99.90;;;;;;5035964;28;20529;-63
2021/08/03 09:19:53;;;;;;;0.50;0.30;;;21.60;1.00;;;;;;5035169;28;20810;-64
2021/08/03 09:22:19;;;;;;;0.47;0.13;;;22.30;99.90;;;;;;5036416;28;20432;-64
2021/08/03 09:24:47;;;;;;;0.40;0.20;;;22.40;99.90;;;;;;5035936;28;20223;-64
2021/08/03 09:27:34;;;;;;;0.40;0.10;;;22.70;99.90;;;;;;5035768;28;20424;-64
2021/08/03 09:30:00;;;;;;;0.50;0.20;;;22.50;99.90;;;;;;5035945;28;20460;-63
2021/08/03 09:32:31;;;;;;;0.40;0.20;;;21.70;99.90;;;;;;5034761;28;20888;-63
2021/08/03 09:35:16;;;;;;;1.37;0.53;;;21.60;1.00;;;;;;5035630;28;20653;-66
2021/08/03 09:37:43;;;;;;;0.40;0.10;;;20.80;1.00;;;;;;5035679;28;20467;-64
2021/08/03 09:40:21;;;;;;;0.40;0.20;;;21.50;1.00;;;;;;5035418;28;20518;-64
2021/08/03 09:43:07;;;;;;;0.40;0.20;;;22.30;99.90;;;;;;5035692;28;20835;-65
2021/08/03 09:45:55;;;;;;;0.40;0.20;;;22.60;99.90;;;;;;5035491;28;20775;-64
2021/08/03 09:48:23;;;;;;;0.40;0.20;;;22.40;99.90;;;;;;5035525;28;20434;-67
2021/08/03 09:51:04;;;;;;;0.40;0.10;;;22.80;99.90;;;;;;5035289;28;20475;-67
2021/08/03 09:53:48;;;;;;;0.50;0.10;;;22.70;99.90;;;;;;5035486;28;20877;-68
2021/08/03 09:56:17;;;;;;;0.50;0.20;;;23.20;1.00;;;;;;5035102;28;20937;-64
2021/08/03 09:59:23;;;;;;;0.50;0.20;;;23.30;1.00;;;;;;5035230;28;20425;-68
2021/08/03 10:02:04;;;;;;;0.50;0.20;;;23.10;1.00;;;;;;5035345;28;20427;-69
2021/08/03 10:04:41;;;;;;;0.50;0.20;;;22.90;1.00;;;;;;5033622;28;20968;-68
2021/08/03 10:07:27;;;;;;;0.40;0.10;;;23.00;1.00;;;;;;5033718;28;20435;-67
2021/08/03 10:09:52;;;;;;;0.50;0.20;;;22.80;1.00;;;;;;5033932;28;20545;-67
2021/08/03 10:12:18;;;;;;;0.50;0.30;;;22.60;1.00;;;;;;5034293;28;20479;-66
2021/08/03 10:14:47;;;;;;;0.40;0.10;;;22.00;99.90;;;;;;5032904;28;20797;-64
2021/08/03 10:17:14;;;;;;;0.50;0.20;;;21.90;99.90;;;;;;5033851;28;20435;-64
2021/08/03 10:19:41;;;;;;;0.50;0.20;;;22.30;99.90;;;;;;5032556;28;20500;-70
2021/08/03 10:22:26;;;;;;;0.40;0.20;;;22.70;40.10;;;;;;5033817;28;20451;-69
2021/08/03 10:25:00;;;;;;;0.50;0.20;;;22.60;6.50;;;;;;5034063;28;20795;-65
2021/08/03 10:27:46;;;;;;;0.60;0.40;;;22.70;1.00;;;;;;5033598;28;20436;-64
2021/08/03 10:30:27;;;;;;;0.50;0.20;;;22.40;58.00;;;;;;5033402;28;20548;-63
2021/08/03 10:32:54;;;;;;;0.50;0.20;;;22.20;7.50;;;;;;5033715;28;20436;-67
2021/08/03 10:35:39;;;;;;;0.50;0.20;;;21.60;99.90;;;;;;5034598;28;20432;-68
2021/08/03 10:38:08;;;;;;;0.50;0.20;;;21.00;1.00;;;;;;5033604;28;20443;-63
2021/08/03 10:40:49;;;;;;;0.50;0.20;;;21.20;99.90;;;;;;5023369;28;20435;-65
2021/08/03 10:43:33;;;;;;;0.40;0.20;;;21.90;99.90;;;;;;5025683;28;20967;-64
2021/08/03 10:46:08;;;;;;;0.50;0.30;;;22.00;99.90;;;;;;5024120;28;20431;-66
2021/08/03 10:48:40;;;;;;;0.50;0.20;;;22.10;98.20;;;;;;5025515;28;20489;-69
2021/08/03 10:51:17;;;;;;;0.50;0.20;;;22.10;1.00;;;;;;5024285;28;20527;-67
2021/08/03 10:54:07;;;;;;;0.50;0.20;;;22.10;2.00;;;;;;5025246;28;20428;-66
2021/08/03 10:56:52;;;;;;;0.47;0.17;;;21.90;92.90;;;;;;5029314;28;20463;-64
2021/08/03 10:59:34;;;;;;;0.47;0.20;;;22.10;89.00;;;;;;5033569;28;20459;-64
2021/08/03 11:02:22;;;;;;;0.50;0.20;;;22.20;51.70;;;;;;5034178;28;20456;-63
2021/08/03 11:04:51;;;;;;;0.40;0.20;;;22.60;1.00;;;;;;5033867;28;20904;-64
2021/08/03 11:07:42;;;;;;;0.40;0.20;;;22.90;1.00;;;;;;5033838;28;20428;-65
2021/08/03 11:10:14;;;;;;;0.50;0.20;;;22.40;1.00;;;;;;5032707;28;20479;-64
2021/08/03 11:12:44;;;;;;;0.50;0.20;;;22.20;1.00;;;;;;5030800;28;20515;-65
2021/08/03 11:15:22;;;;;;;0.50;0.20;;;22.40;1.00;;;;;;5034048;28;20424;-67
2021/08/03 11:17:56;;;;;;;0.50;0.20;;;22.70;1.00;;;;;;5033956;28;20412;-68
2021/08/03 11:20:36;;;;;;;0.40;0.20;;;22.90;1.00;;;;;;5033712;28;20432;-67
2021/08/03 11:23:02;;;;;;;0.40;0.10;;;22.90;1.00;;;;;;5032840;28;20759;-68
2021/08/03 11:25:28;;;;;;;0.50;0.20;;;22.70;1.00;;;;;;5032518;28;20432;-67
2021/08/03 11:27:55;;;;;;;0.50;0.30;;;22.60;5.30;;;;;;5033338;28;20202;-68
2021/08/03 11:30:20;;;;;;;0.40;0.10;;;22.40;2.80;;;;;;5033242;28;20476;-63
2021/08/03 11:32:48;;;;;;;0.50;0.13;;;22.20;99.90;;;;;;5032967;28;20443;-63
2021/08/03 11:35:25;;;;;;;0.40;0.13;;;22.10;99.90;;;;;;5033603;28;20595;-64
2021/08/03 11:37:51;;;;;;;0.40;0.10;;;21.90;99.90;;;;;;5014342;28;20448;-62
2021/08/03 11:40:16;;;;;;;0.50;0.20;;;22.00;99.90;;;;;;5014115;28;20448;-68
2021/08/03 11:42:43;;;;;;;0.57;0.37;;;21.90;99.90;;;;;;5014288;28;20190;-67
2021/08/03 11:45:23;;;;;;;0.40;0.20;;;21.80;99.90;;;;;;5020116;28;20177;-68
2021/08/03 11:47:56;;;;;;;17.07;3.70;;;22.20;99.90;;;;;;5033096;28;20490;-69
2021/08/03 11:50:34;;;;;;;0.50;0.20;;;22.50;99.90;;;;;;5033133;28;20507;-66
2021/08/03 11:53:08;;;;;;;0.40;0.20;;;22.10;92.40;;;;;;5033215;28;20566;-67
2021/08/03 11:55:38;;;;;;;0.50;0.20;;;22.70;8.40;;;;;;5033084;28;20452;-68
2021/08/03 11:58:05;;;;;;;0.50;0.20;;;22.70;1.00;;;;;;5033167;28;20426;-69
2021/08/03 12:00:31;;;;;;;0.50;0.20;;;22.70;1.00;;;;;;5033128;28;20446;-68
2021/08/03 12:02:59;;;;;;;0.40;0.20;;;23.20;1.00;;;;;;5036447;28;20432;-67
2021/08/03 12:05:33;;;;;;;0.40;0.20;;;23.40;1.00;;;;;;5035929;28;20447;-67
2021/08/03 12:08:04;;;;;;;0.50;0.20;;;23.30;1.00;;;;;;5035278;28;20845;-67
2021/08/03 12:10:33;;;;;;;0.50;0.20;;;23.10;1.00;;;;;;5036422;28;20474;-67
2021/08/03 12:13:01;;;;;;;0.50;0.10;;;23.20;1.00;;;;;;5036777;28;20424;-67
2021/08/03 12:15:28;;;;;;;0.50;0.20;;;23.40;1.00;;;;;;5034302;28;20503;-67
2021/08/03 12:18:09;;;;;;;0.50;0.20;;;22.90;1.00;;;;;;5033308;28;20522;-67
2021/08/03 12:20:39;;;;;;;0.40;0.10;;;23.10;1.00;;;;;;5034743;28;20428;-60
2021/08/03 12:23:23;;;;;;;0.50;0.20;;;23.40;1.00;;;;;;5034356;28;20457;-62
2021/08/03 12:25:50;;;;;;;0.50;0.20;;;23.50;1.00;;;;;;5034251;28;20714;-63
2021/08/03 12:28:26;;;;;;;0.50;0.10;;;23.30;1.00;;;;;;5036226;28;20515;-63
2021/08/03 12:30:52;;;;;;;0.50;0.20;;;23.60;1.00;;;;;;5036446;28;20645;-62
2021/08/03 12:33:29;;;;;;;0.50;0.30;;;23.20;1.00;;;;;;5036332;28;20905;-61
2021/08/03 12:36:06;;;;;;;0.50;0.20;;;23.20;1.00;;;;;;5036545;28;20169;-62
2021/08/03 12:38:36;;;;;;;0.50;0.20;;;23.80;1.00;;;;;;5039194;28;20513;-62
2021/08/03 12:41:20;;;;;;;0.50;0.20;;;24.10;1.00;;;;;;5029094;28;20437;-62
2021/08/03 12:43:47;;;;;;;0.50;0.20;;;23.70;1.00;;;;;;5021729;28;20429;-64
2021/08/03 12:46:13;;;;;;;0.50;0.20;;;24.10;1.00;;;;;;5019357;28;20905;-63
2021/08/03 12:48:50;;;;;;;0.50;0.20;;;24.80;1.00;;;;;;5020145;28;20455;-63
2021/08/03 12:51:23;;;;;;;0.50;0.10;;;24.70;1.00;;;;;;5019957;28;20464;-63
2021/08/03 12:53:49;;;;;;;0.60;0.20;;;25.10;1.00;;;;;;5030559;28;20423;-62
2021/08/03 12:56:48;;;;;;;0.50;0.13;;;25.50;1.00;;;;;;5039562;28;20444;-63
2021/08/03 12:59:33;;;;;;;0.50;0.20;;;25.30;1.00;;;;;;5017198;28;20519;-62
2021/08/03 13:01:59;;;;;;;0.50;0.20;;;25.50;1.00;;;;;;5021428;28;20432;-62
2021/08/03 13:04:25;;;;;;;0.50;0.10;;;25.20;1.00;;;;;;5036440;28;20432;-63
2021/08/03 13:06:55;;;;;;;0.50;0.20;;;25.60;1.00;;;;;;5036604;28;20432;-64